Time;durP1;ratioP1;P1;durP2;ratioP2;P2;SDS_P1;SDS_P2;PMS_P1;PMS_P2;Temp;Humidity;BMP_temperature;BMP_pressure;BME280_temperature;BME280_humidity;BME280_pressure;Samples;Min_cycle;Max_cycle;Signal;HPM_P1;HPM_P2
2022/09/06 00:00:09;;;;;;;;;;;20.50;99.90;;;;;;4964597;28;19929;-82
2022/09/06 00:02:35;;;;;;;;;;;20.30;99.90;;;;;;4990672;28;20272;-83
2022/09/06 00:05:01;;;;;;;;;;;20.30;99.90;;;;;;4985130;28;19902;-84
2022/09/06 00:07:26;;;;;;;;;;;20.10;99.90;;;;;;4989435;28;19918;-83
2022/09/06 00:09:52;;;;;;;;;;;20.00;99.90;;;;;;4988382;28;19974;-83
2022/09/06 00:12:17;;;;;;;;;;;19.90;99.90;;;;;;4969502;28;19916;-82
2022/09/06 00:14:43;;;;;;;;;;;19.90;99.90;;;;;;4958207;28;19916;-83
2022/09/06 00:17:09;;;;;;;;;;;20.00;99.90;;;;;;4964398;28;20020;-84
2022/09/06 00:19:34;;;;;;;;;;;20.00;99.90;;;;;;4986882;28;19917;-82
2022/09/06 00:22:00;;;;;;;;;;;20.00;99.90;;;;;;4972105;28;19910;-82
2022/09/06 00:24:25;;;;;;;;;;;19.90;99.90;;;;;;4954289;28;19985;-81
2022/09/06 00:26:51;;;;;;;;;;;19.80;99.90;;;;;;4972294;28;19917;-81
2022/09/06 00:29:16;;;;;;;;;;;19.70;99.90;;;;;;4965772;28;19918;-81
2022/09/06 00:31:42;;;;;;;;;;;19.70;99.90;;;;;;4954893;28;19957;-83
2022/09/06 00:34:07;;;;;;;;;;;19.70;99.90;;;;;;4971847;28;19917;-82
2022/09/06 00:36:33;;;;;;;;;;;19.70;99.90;;;;;;4950239;28;19918;-83
2022/09/06 00:38:58;;;;;;;;;;;19.60;99.90;;;;;;4967580;28;19944;-82
2022/09/06 00:41:24;;;;;;;;;;;19.60;99.90;;;;;;4967600;28;19941;-83
2022/09/06 00:43:49;;;;;;;;;;;19.60;99.90;;;;;;4959271;28;20012;-82
2022/09/06 00:46:21;;;;;;;;;;;19.50;99.90;;;;;;4957865;28;19918;-82
2022/09/06 00:48:49;;;;;;;;;;;19.50;99.90;;;;;;4962432;28;19938;-82
2022/09/06 00:51:15;;;;;;;;;;;19.50;99.90;;;;;;4958453;28;19918;-83
2022/09/06 00:53:41;;;;;;;;;;;19.50;99.90;;;;;;4976535;28;19928;-83
2022/09/06 00:56:07;;;;;;;;;;;19.50;99.90;;;;;;4970415;28;20727;-81
2022/09/06 00:58:33;;;;;;;;;;;19.50;99.90;;;;;;4970038;28;19919;-82
2022/09/06 01:00:59;;;;;;;;;;;19.40;99.90;;;;;;4964843;28;19924;-82
2022/09/06 01:03:25;;;;;;;;;;;19.50;99.90;;;;;;4961003;28;20357;-83
2022/09/06 01:06:02;;;;;;;;;;;19.40;99.90;;;;;;4954848;28;20009;-81
2022/09/06 01:08:47;;;;;;;;;;;19.50;99.90;;;;;;4954839;28;19917;-80
2022/09/06 01:11:13;;;;;;;;;;;19.50;99.90;;;;;;4975268;28;19949;-81
2022/09/06 01:13:42;;;;;;;;;;;19.40;99.90;;;;;;4965646;28;19918;-80
2022/09/06 01:16:16;;;;;;;;;;;19.40;99.90;;;;;;4965499;28;19976;-80
2022/09/06 01:18:48;;;;;;;;;;;19.50;99.90;;;;;;4963932;28;19918;-81
2022/09/06 01:21:29;;;;;;;;;;;19.60;99.90;;;;;;4964789;28;19910;-81
2022/09/06 01:24:10;;;;;;;;;;;19.60;99.90;;;;;;4960694;28;19921;-80
2022/09/06 01:26:55;;;;;;;;;;;19.40;99.90;;;;;;4971408;28;19909;-80
2022/09/06 01:29:30;;;;;;;;;;;19.40;99.90;;;;;;4970529;28;20117;-82
2022/09/06 01:32:01;;;;;;;;;;;19.30;99.90;;;;;;4957479;28;19949;-79
2022/09/06 01:34:30;;;;;;;;;;;19.30;99.90;;;;;;4976110;28;20012;-82
2022/09/06 01:36:58;;;;;;;;;;;19.30;99.90;;;;;;4954060;28;20403;-80
2022/09/06 01:39:26;;;;;;;;;;;19.20;99.90;;;;;;4949037;28;19914;-80
2022/09/06 01:41:52;;;;;;;;;;;19.20;99.90;;;;;;4957359;28;19993;-80
2022/09/06 01:44:18;;;;;;;;;;;19.20;99.90;;;;;;4966614;28;20305;-80
2022/09/06 01:46:46;;;;;;;;;;;19.10;99.90;;;;;;4966917;28;19920;-80
2022/09/06 01:49:20;;;;;;;;;;;19.10;99.90;;;;;;4974031;28;20438;-80
2022/09/06 01:52:14;;;;;;;;;;;19.00;99.90;;;;;;4967888;28;19911;-79
2022/09/06 01:54:55;;;;;;;;;;;19.00;99.90;;;;;;4958562;28;19906;-80
2022/09/06 01:57:21;;;;;;;;;;;;;;;;;;4972519;28;20431;-79
2022/09/06 01:59:49;;;;;;;;;;;18.90;99.90;;;;;;4958663;28;19964;-80
2022/09/06 02:02:15;;;;;;;;;;;18.90;99.90;;;;;;4966236;28;20380;-79
2022/09/06 02:04:45;;;;;;;;;;;18.90;99.90;;;;;;4953273;28;19968;-79
2022/09/06 02:07:30;;;;;;;;;;;18.90;99.90;;;;;;4967257;28;19914;-80
2022/09/06 02:10:05;;;;;;;;;;;18.90;99.90;;;;;;4964822;28;20000;-80
2022/09/06 02:12:31;;;;;;;;;;;18.90;99.90;;;;;;4965918;28;19929;-79
2022/09/06 02:15:00;;;;;;;;;;;18.90;99.90;;;;;;4962652;28;20373;-82
2022/09/06 02:17:29;;;;;;;;;;;18.80;99.90;;;;;;4964292;28;19922;-80
2022/09/06 02:20:01;;;;;;;;;;;18.80;99.90;;;;;;5013442;23;19929;-83
2022/09/06 02:22:29;;;;;;;;;;;18.80;99.90;;;;;;4998740;28;20398;-81
2022/09/06 02:24:58;;;;;;;;;;;18.80;99.90;;;;;;4995911;28;19924;-83
2022/09/06 02:27:27;;;;;;;;;;;18.80;99.90;;;;;;4993460;28;19924;-85
2022/09/06 02:29:53;;;;;;;;;;;18.70;99.90;;;;;;4986329;28;19914;-84
2022/09/06 02:32:20;;;;;;;;;;;18.70;99.90;;;;;;4990081;28;19916;-84
2022/09/06 02:34:47;;;;;;;;;;;18.70;99.90;;;;;;4988413;28;19910;-83
2022/09/06 02:37:16;;;;;;;;;;;18.70;99.90;;;;;;4973501;28;19918;-83
2022/09/06 02:39:41;;;;;;;;;;;18.60;99.90;;;;;;4969010;28;19918;-81
2022/09/06 02:42:09;;;;;;;;;;;18.60;99.90;;;;;;4985127;28;20017;-83
2022/09/06 02:44:34;;;;;;;;;;;18.60;99.90;;;;;;4967230;28;20407;-85
2022/09/06 02:47:02;;;;;;;;;;;18.50;99.90;;;;;;4989722;28;21448;-82
2022/09/06 02:49:28;;;;;;;;;;;18.60;99.90;;;;;;4967657;28;19914;-83
2022/09/06 02:51:57;;;;;;;;;;;18.50;99.90;;;;;;4990392;28;20260;-84
2022/09/06 02:54:23;;;;;;;;;;;18.50;99.90;;;;;;4995772;28;19969;-83
2022/09/06 02:56:49;;;;;;;;;;;18.50;99.90;;;;;;4997164;28;20172;-84
2022/09/06 02:59:15;;;;;;;;;;;18.40;99.90;;;;;;4982120;28;19988;-86
2022/09/06 03:01:59;;;;;;;;;;;;;;;;;;;;;
2022/09/06 03:07:56;;;;;;;;;;;18.20;99.90;;;;;;4918874;28;19911;-82
2022/09/06 03:10:45;;;;;;;;;;;18.20;99.90;;;;;;4996882;28;20486;-83
2022/09/06 03:13:17;;;;;;;;;;;18.20;99.90;;;;;;4977338;28;19957;-84
2022/09/06 03:16:15;;;;;;;;;;;;;;;;;;;;;
2022/09/06 03:19:04;;;;;;;;;;;18.20;99.90;;;;;;4990669;28;20314;-82
2022/09/06 03:21:42;;;;;;;;;;;18.20;99.90;;;;;;4986524;28;19917;-84
2022/09/06 03:30:43;;;;;;;;;;;;;;;;;;;;;
2022/09/06 03:33:53;;;;;;;;;;;;;;;;;;;;;
2022/09/06 03:36:40;;;;;;;;;;;18.10;99.90;;;;;;4996934;28;19913;-83
2022/09/06 03:39:06;;;;;;;;;;;18.10;99.90;;;;;;4986896;28;19940;-83
2022/09/06 03:41:32;;;;;;;;;;;18.10;99.90;;;;;;4988587;28;19918;-83
2022/09/06 03:43:57;;;;;;;;;;;18.10;99.90;;;;;;4979179;28;19918;-83
2022/09/06 03:46:23;;;;;;;;;;;18.10;99.90;;;;;;4982483;28;19914;-83
2022/09/06 03:48:49;;;;;;;;;;;18.10;99.90;;;;;;4979114;28;20036;-81
2022/09/06 03:51:14;;;;;;;;;;;18.00;99.90;;;;;;4980911;28;19932;-82
2022/09/06 03:53:40;;;;;;;;;;;18.00;99.90;;;;;;4981526;28;19928;-85
2022/09/06 03:56:05;;;;;;;;;;;18.00;99.90;;;;;;4976362;28;19914;-80
2022/09/06 03:58:34;;;;;;;;;;;18.00;99.90;;;;;;4978893;28;19913;-82
2022/09/06 04:01:07;;;;;;;;;;;18.00;99.90;;;;;;4976222;28;19914;-83
2022/09/06 04:03:33;;;;;;;;;;;18.00;99.90;;;;;;4973416;28;19989;-83
2022/09/06 04:05:58;;;;;;;;;;;17.90;99.90;;;;;;4972609;28;19948;-82
2022/09/06 04:08:24;;;;;;;;;;;17.90;99.90;;;;;;4990677;28;19948;-82
2022/09/06 04:10:51;;;;;;;;;;;17.90;99.90;;;;;;4980794;28;19988;-82
2022/09/06 04:13:17;;;;;;;;;;;17.90;99.90;;;;;;4969785;28;20200;-85
2022/09/06 04:15:46;;;;;;;;;;;17.90;99.90;;;;;;4971804;28;19940;-84
2022/09/06 04:18:13;;;;;;;;;;;17.80;99.90;;;;;;4980596;28;19918;-81
2022/09/06 04:20:41;;;;;;;;;;;17.80;99.90;;;;;;4971733;28;20060;-82
2022/09/06 04:23:07;;;;;;;;;;;17.80;99.90;;;;;;4988985;28;19987;-83
2022/09/06 04:25:33;;;;;;;;;;;17.80;99.90;;;;;;4973221;28;19973;-84
2022/09/06 04:27:59;;;;;;;;;;;17.80;99.90;;;;;;4990157;28;19918;-84
2022/09/06 04:30:24;;;;;;;;;;;17.70;99.90;;;;;;4969917;28;20066;-86
2022/09/06 04:32:50;;;;;;;;;;;17.70;99.90;;;;;;4972654;28;20326;-85
2022/09/06 04:35:15;;;;;;;;;;;17.70;99.90;;;;;;4977229;28;19905;-82
2022/09/06 04:37:41;;;;;;;;;;;17.70;99.90;;;;;;4977802;28;19910;-83
2022/09/06 04:40:07;;;;;;;;;;;17.70;99.90;;;;;;4976765;28;19914;-85
2022/09/06 04:42:33;;;;;;;;;;;17.60;99.90;;;;;;4970141;28;20020;-84
2022/09/06 04:44:58;;;;;;;;;;;17.60;99.90;;;;;;4987566;28;20000;-86
2022/09/06 04:47:24;;;;;;;;;;;17.60;99.90;;;;;;4989864;28;19988;-84
2022/09/06 04:49:52;;;;;;;;;;;17.60;99.90;;;;;;4970225;28;19914;-86
2022/09/06 04:52:20;;;;;;;;;;;17.60;99.90;;;;;;4972077;28;19917;-83
2022/09/06 04:54:46;;;;;;;;;;;17.60;99.90;;;;;;4977102;28;19909;-85
2022/09/06 04:57:11;;;;;;;;;;;17.60;99.90;;;;;;4985459;28;20434;-85
2022/09/06 04:59:37;;;;;;;;;;;17.50;99.90;;;;;;4986585;28;19913;-82
2022/09/06 05:02:02;;;;;;;;;;;17.50;99.90;;;;;;4984962;28;19914;-85
2022/09/06 05:04:28;;;;;;;;;;;17.50;99.90;;;;;;4992588;28;20070;-84
2022/09/06 05:07:04;;;;;;;;;;;17.50;99.90;;;;;;4977900;28;19933;-83
2022/09/06 05:09:30;;;;;;;;;;;17.50;99.90;;;;;;4995402;28;20421;-87
2022/09/06 05:11:56;;;;;;;;;;;17.50;99.90;;;;;;4993090;28;19964;-82
2022/09/06 05:14:21;;;;;;;;;;;17.50;99.90;;;;;;4982240;28;19909;-83
2022/09/06 05:16:47;;;;;;;;;;;17.50;99.90;;;;;;4976799;28;19924;-84
2022/09/06 05:19:12;;;;;;;;;;;17.60;99.90;;;;;;4970150;28;19917;-82
2022/09/06 05:21:38;;;;;;;;;;;17.60;99.90;;;;;;4972012;28;19920;-81
2022/09/06 05:24:03;;;;;;;;;;;17.60;99.90;;;;;;4971995;28;20348;-83
2022/09/06 05:26:29;;;;;;;;;;;17.60;99.90;;;;;;4992830;28;19910;-83
2022/09/06 05:28:54;;;;;;;;;;;17.60;99.90;;;;;;4982176;28;19920;-82
2022/09/06 05:31:30;;;;;;;;;;;17.60;99.90;;;;;;4990916;28;20113;-82
2022/09/06 05:33:56;;;;;;;;;;;17.70;99.90;;;;;;4974605;28;20008;-86
2022/09/06 05:36:22;;;;;;;;;;;17.70;99.90;;;;;;4977444;28;20376;-83
2022/09/06 05:38:51;;;;;;;;;;;19.30;99.90;;;;;;4981767;28;23398;-83
2022/09/06 05:41:17;;;;;;;;;;;17.70;99.90;;;;;;4983775;28;19945;-84
2022/09/06 05:43:43;;;;;;;;;;;17.70;99.90;;;;;;4988797;28;19913;-85
2022/09/06 05:46:11;;;;;;;;;;;17.70;99.90;;;;;;4955196;28;19954;-83
2022/09/06 05:48:36;;;;;;;;;;;17.80;99.90;;;;;;4989495;28;20363;-84
2022/09/06 05:51:05;;;;;;;;;;;17.80;99.90;;;;;;4971627;28;19921;-85
2022/09/06 05:53:34;;;;;;;;;;;17.90;99.90;;;;;;4984978;28;19910;-84
2022/09/06 05:56:00;;;;;;;;;;;17.90;99.90;;;;;;4974202;28;19926;-81
2022/09/06 05:58:25;;;;;;;;;;;18.00;99.90;;;;;;4987463;28;19910;-83
2022/09/06 06:00:51;;;;;;;;;;;18.00;99.90;;;;;;4985069;28;19913;-81
2022/09/06 06:03:16;;;;;;;;;;;18.10;99.90;;;;;;4971073;28;19909;-81
2022/09/06 06:05:46;;;;;;;;;;;18.10;99.90;;;;;;4982777;28;19913;-83
2022/09/06 06:08:11;;;;;;;;;;;18.20;99.90;;;;;;4991054;28;20163;-82
2022/09/06 06:10:38;;;;;;;;;;;18.20;99.90;;;;;;4972737;28;19914;-84
2022/09/06 06:13:03;;;;;;;;;;;18.20;99.90;;;;;;5002530;28;20404;-82
2022/09/06 06:15:31;;;;;;;;;;;18.20;99.90;;;;;;4971281;28;19973;-80
2022/09/06 06:17:56;;;;;;;;;;;18.30;99.90;;;;;;4988457;28;20014;-82
2022/09/06 06:20:22;;;;;;;;;;;18.20;99.90;;;;;;4973306;28;19921;-84
2022/09/06 06:22:47;;;;;;;;;;;18.20;99.90;;;;;;4993146;28;19945;-85
2022/09/06 06:25:13;;;;;;;;;;;18.20;99.90;;;;;;4990201;28;19909;-85
2022/09/06 06:27:38;;;;;;;;;;;18.20;99.90;;;;;;4992458;28;19914;-83
2022/09/06 06:30:04;;;;;;;;;;;18.30;99.90;;;;;;4966604;28;19981;-82
2022/09/06 06:32:29;;;;;;;;;;;18.40;99.90;;;;;;4974576;28;19921;-85
2022/09/06 06:34:55;;;;;;;;;;;18.40;99.90;;;;;;4994965;28;19910;-85
2022/09/06 06:37:20;;;;;;;;;;;18.40;99.90;;;;;;4977001;28;19922;-84
2022/09/06 06:39:46;;;;;;;;;;;18.40;99.90;;;;;;4966798;28;19953;-83
2022/09/06 06:42:12;;;;;;;;;;;18.30;99.90;;;;;;4986641;28;19945;-84
2022/09/06 06:44:38;;;;;;;;;;;18.40;99.90;;;;;;4998228;28;19936;-80
2022/09/06 06:47:03;;;;;;;;;;;18.40;99.90;;;;;;4984530;28;19971;-83
2022/09/06 06:49:29;;;;;;;;;;;18.50;99.90;;;;;;5004388;28;19921;-84
2022/09/06 06:51:54;;;;;;;;;;;18.40;99.90;;;;;;4982142;28;19910;-84
2022/09/06 06:54:20;;;;;;;;;;;18.50;99.90;;;;;;4993941;28;19913;-83
2022/09/06 06:56:45;;;;;;;;;;;18.60;99.90;;;;;;4990290;28;19921;-86
2022/09/06 06:59:11;;;;;;;;;;;18.80;99.90;;;;;;5000979;28;19913;-85
2022/09/06 07:01:36;;;;;;;;;;;18.90;99.90;;;;;;4998110;28;19913;-84
2022/09/06 07:04:02;;;;;;;;;;;18.90;99.90;;;;;;4979824;28;19950;-83
2022/09/06 07:06:28;;;;;;;;;;;19.00;99.90;;;;;;4976075;28;19913;-83
2022/09/06 07:08:57;;;;;;;;;;;19.00;99.90;;;;;;4980954;28;19906;-84
2022/09/06 07:11:22;;;;;;;;;;;19.00;99.90;;;;;;4985555;28;19945;-85
2022/09/06 07:13:48;;;;;;;;;;;19.00;99.90;;;;;;4975299;28;19910;-85
2022/09/06 07:16:23;;;;;;;;;;;19.00;99.90;;;;;;4991773;28;19917;-83
2022/09/06 07:18:52;;;;;;;;;;;19.30;99.90;;;;;;4996073;28;19957;-82
2022/09/06 07:21:19;;;;;;;;;;;19.30;99.90;;;;;;4990598;28;19936;-84
2022/09/06 07:23:45;;;;;;;;;;;19.50;99.90;;;;;;4988382;28;19910;-86
2022/09/06 07:26:15;;;;;;;;;;;19.50;99.90;;;;;;4986629;28;20004;-82
2022/09/06 07:28:40;;;;;;;;;;;19.80;99.90;;;;;;4980828;28;20006;-83
2022/09/06 07:31:06;;;;;;;;;;;19.80;99.90;;;;;;4980819;28;19946;-83
2022/09/06 07:33:33;;;;;;;;;;;19.90;99.90;;;;;;4978205;28;19917;-82
2022/09/06 07:35:59;;;;;;;;;;;20.00;99.90;;;;;;4978493;28;20352;-85
2022/09/06 07:38:26;;;;;;;;;;;20.40;99.90;;;;;;4982313;28;20383;-83
2022/09/06 07:40:53;;;;;;;;;;;20.40;99.90;;;;;;4984096;28;19921;-84
2022/09/06 07:43:18;;;;;;;;;;;20.70;99.90;;;;;;4987169;28;20012;-87
2022/09/06 07:45:44;;;;;;;;;;;20.70;99.90;;;;;;4985072;28;20023;-83
2022/09/06 07:48:09;;;;;;;;;;;21.00;99.90;;;;;;5006966;28;19965;-81
2022/09/06 07:50:35;;;;;;;;;;;21.00;99.90;;;;;;4982214;28;20284;-83
2022/09/06 07:53:07;;;;;;;;;;;21.00;99.90;;;;;;4979415;28;19952;-84
2022/09/06 07:55:32;;;;;;;;;;;21.10;99.90;;;;;;5000822;28;19913;-85
2022/09/06 07:57:58;;;;;;;;;;;21.10;99.90;;;;;;4990001;28;19909;-82
2022/09/06 08:00:24;;;;;;;;;;;21.00;99.90;;;;;;4987323;28;19931;-81
2022/09/06 08:02:49;;;;;;;;;;;21.10;99.90;;;;;;4985451;28;19916;-82
2022/09/06 08:05:15;;;;;;;;;;;21.20;99.90;;;;;;5016456;28;19906;-83
2022/09/06 08:07:40;;;;;;;;;;;21.10;99.90;;;;;;4984936;28;19920;-83
2022/09/06 08:10:06;;;;;;;;;;;21.20;99.90;;;;;;4984258;28;19913;-82
2022/09/06 08:12:32;;;;;;;;;;;21.40;99.90;;;;;;5009442;28;20284;-82
2022/09/06 08:14:57;;;;;;;;;;;21.70;99.90;;;;;;4981875;28;19937;-82
2022/09/06 08:17:23;;;;;;;;;;;21.70;99.90;;;;;;4983291;28;19909;-81
2022/09/06 08:19:48;;;;;;;;;;;21.80;99.90;;;;;;4979348;28;20376;-79
2022/09/06 08:22:14;;;;;;;;;;;21.90;99.90;;;;;;4996433;28;20264;-81
2022/09/06 08:24:39;;;;;;;;;;;22.00;99.90;;;;;;5002457;28;19960;-79
2022/09/06 08:27:08;;;;;;;;;;;22.10;99.90;;;;;;5001002;28;19956;-79
2022/09/06 08:29:34;;;;;;;;;;;22.20;99.90;;;;;;4991246;28;19910;-80
2022/09/06 08:31:59;;;;;;;;;;;22.10;99.90;;;;;;5003622;28;19913;-80
2022/09/06 08:34:25;;;;;;;;;;;22.30;99.90;;;;;;4995788;28;19913;-79
2022/09/06 08:36:50;;;;;;;;;;;22.50;99.90;;;;;;4994969;28;19972;-80
2022/09/06 08:39:16;;;;;;;;;;;22.70;99.90;;;;;;4990390;28;20320;-82
2022/09/06 08:41:56;;;;;;;;;;;22.70;99.90;;;;;;4999453;28;19980;-81
2022/09/06 08:44:28;;;;;;;;;;;22.80;99.90;;;;;;4979727;28;19910;-82
2022/09/06 08:46:55;;;;;;;;;;;22.80;99.90;;;;;;4999217;28;20287;-80
2022/09/06 08:49:21;;;;;;;;;;;23.10;99.90;;;;;;4978750;28;19914;-80
2022/09/06 08:51:52;;;;;;;;;;;23.30;99.90;;;;;;5000647;28;19916;-83
2022/09/06 08:54:24;;;;;;;;;;;23.50;99.90;;;;;;5000557;28;20004;-83
2022/09/06 08:56:55;;;;;;;;;;;23.60;99.90;;;;;;5001865;28;19914;-86
2022/09/06 08:59:21;;;;;;;;;;;23.70;99.90;;;;;;4995493;28;19913;-84
2022/09/06 09:01:46;;;;;;;;;;;23.70;99.90;;;;;;5000507;28;19910;-83
2022/09/06 09:04:14;;;;;;;;;;;23.90;99.90;;;;;;4991202;28;20299;-87
2022/09/06 09:06:39;;;;;;;;;;;24.00;99.90;;;;;;5003906;28;19906;-84
2022/09/06 09:09:06;;;;;;;;;;;24.20;99.90;;;;;;5010477;28;20023;-85
2022/09/06 09:11:34;;;;;;;;;;;24.30;99.90;;;;;;4998886;28;19916;-83
2022/09/06 09:14:03;;;;;;;;;;;24.40;99.90;;;;;;4967030;28;19956;-81
2022/09/06 09:16:28;;;;;;;;;;;24.50;99.90;;;;;;4978267;28;19918;-83
2022/09/06 09:18:55;;;;;;;;;;;24.70;99.90;;;;;;5008576;28;19964;-82
2022/09/06 09:21:23;;;;;;;;;;;24.80;99.90;;;;;;5008340;28;20371;-81
2022/09/06 09:23:53;;;;;;;;;;;24.80;99.90;;;;;;4984854;28;19914;-84
2022/09/06 09:26:19;;;;;;;;;;;25.00;99.90;;;;;;4978511;28;19918;-85
2022/09/06 09:29:01;;;;;;;;;;;25.30;99.90;;;;;;4996844;28;20005;-84
2022/09/06 09:31:33;;;;;;;;;;;25.40;99.90;;;;;;4996897;28;19963;-80
2022/09/06 09:34:03;;;;;;;;;;;25.50;99.90;;;;;;4987877;28;20294;-83
2022/09/06 09:36:29;;;;;;;;;;;25.60;99.90;;;;;;4980766;28;19909;-81
2022/09/06 09:38:55;;;;;;;;;;;25.60;99.90;;;;;;4990525;28;19909;-80
2022/09/06 09:41:31;;;;;;;;;;;25.60;99.90;;;;;;4985249;28;19910;-84
2022/09/06 09:44:08;;;;;;;;;;;25.60;99.90;;;;;;4999355;28;19906;-82
2022/09/06 09:46:35;;;;;;;;;;;25.90;99.90;;;;;;4999246;28;19909;-82
2022/09/06 09:49:03;;;;;;;;;;;26.10;99.90;;;;;;5006531;28;19909;-81
2022/09/06 09:51:30;;;;;;;;;;;26.10;99.90;;;;;;5002049;28;19909;-84
2022/09/06 09:54:00;;;;;;;;;;;26.00;99.90;;;;;;4994010;28;19949;-83
2022/09/06 09:56:44;;;;;;;;;;;26.20;99.90;;;;;;4987576;28;19959;-82
2022/09/06 09:59:16;;;;;;;;;;;26.20;99.90;;;;;;4989272;28;19910;-86
2022/09/06 10:01:41;;;;;;;;;;;26.30;99.90;;;;;;4995343;28;19910;-81
2022/09/06 10:04:09;;;;;;;;;;;26.40;99.90;;;;;;4978721;28;19918;-81
2022/09/06 10:06:35;;;;;;;;;;;;;;;;;;4975215;28;19924;-85
2022/09/06 10:09:13;;;;;;;;;;;26.60;99.90;;;;;;4986859;28;20362;-80
2022/09/06 10:11:52;;;;;;;;;;;26.70;99.90;;;;;;5002494;28;19937;-79
2022/09/06 10:14:23;;;;;;;;;;;26.70;99.70;;;;;;4991784;28;19914;-81
2022/09/06 10:16:50;;;;;;;;;;;26.90;99.80;;;;;;4996659;28;19917;-80
2022/09/06 10:19:24;;;;;;;;;;;27.00;98.90;;;;;;4995972;28;19968;-84
2022/09/06 10:21:53;;;;;;;;;;;27.00;99.00;;;;;;4996112;28;19910;-80
2022/09/06 10:24:37;;;;;;;;;;;27.10;98.40;;;;;;4992978;28;20331;-82
2022/09/06 10:27:03;;;;;;;;;;;27.20;98.60;;;;;;4994978;28;19921;-82
2022/09/06 10:29:31;;;;;;;;;;;27.40;97.70;;;;;;4998284;28;19909;-83
2022/09/06 10:31:59;;;;;;;;;;;27.40;97.80;;;;;;4979992;28;20327;-80
2022/09/06 10:34:25;;;;;;;;;;;27.60;96.80;;;;;;4970362;28;19971;-78
2022/09/06 10:37:06;;;;;;;;;;;27.60;95.70;;;;;;4996479;28;20037;-80
2022/09/06 10:39:34;;;;;;;;;;;27.60;95.50;;;;;;4998111;28;19956;-81
2022/09/06 10:42:12;;;;;;;;;;;27.80;94.60;;;;;;5005486;28;19914;-79
2022/09/06 10:44:53;;;;;;;;;;;27.80;94.50;;;;;;4980807;28;19925;-81
2022/09/06 10:47:19;;;;;;;;;;;27.90;94.60;;;;;;5001672;28;19905;-78
2022/09/06 10:49:48;;;;;;;;;;;27.80;94.30;;;;;;5001013;28;20006;-80
2022/09/06 10:52:17;;;;;;;;;;;27.80;94.30;;;;;;4979931;28;20008;-81
2022/09/06 10:54:46;;;;;;;;;;;27.90;93.60;;;;;;4988781;28;19941;-79
2022/09/06 10:57:20;;;;;;;;;;;27.90;93.40;;;;;;4978598;28;20359;-79
2022/09/06 10:59:48;;;;;;;;;;;28.00;93.20;;;;;;4997238;28;19910;-80
2022/09/06 11:02:32;;;;;;;;;;;28.00;93.10;;;;;;4980151;28;19916;-82
2022/09/06 11:05:02;;;;;;;;;;;28.10;92.90;;;;;;4996435;28;19945;-80
2022/09/06 11:07:29;;;;;;;;;;;28.20;92.80;;;;;;4980578;28;20379;-80
2022/09/06 11:10:09;;;;;;;;;;;28.20;92.40;;;;;;5001384;28;19948;-81
2022/09/06 11:12:37;;;;;;;;;;;28.30;92.50;;;;;;4999890;28;19914;-78
2022/09/06 11:15:05;;;;;;;;;;;28.30;92.60;;;;;;4974465;28;19918;-82
2022/09/06 11:17:40;;;;;;;;;;;28.40;92.20;;;;;;5002566;28;19914;-80
2022/09/06 11:20:24;;;;;;;;;;;28.50;91.70;;;;;;4978227;28;19917;-80
2022/09/06 11:22:57;;;;;;;;;;;28.50;92.40;;;;;;5005541;28;20024;-81
2022/09/06 11:25:26;;;;;;;;;;;28.60;91.60;;;;;;4979410;28;19949;-78
2022/09/06 11:27:54;;;;;;;;;;;28.60;91.90;;;;;;4997141;28;20055;-81
2022/09/06 11:30:21;;;;;;;;;;;28.60;91.40;;;;;;4980700;28;19909;-81
2022/09/06 11:32:51;;;;;;;;;;;28.70;89.30;;;;;;4999081;28;20378;-80
2022/09/06 11:35:28;;;;;;;;;;;28.60;87.20;;;;;;5000110;28;19909;-79
2022/09/06 11:38:22;;;;;;;;;;;28.70;88.30;;;;;;4982029;28;20275;-80
2022/09/06 11:40:53;;;;;;;;;;;28.70;86.60;;;;;;4963022;28;19914;-82
2022/09/06 11:43:38;;;;;;;;;;;28.90;86.70;;;;;;4978131;28;19912;-81
2022/09/06 11:46:03;;;;;;;;;;;29.00;87.40;;;;;;4992213;28;19946;-77
2022/09/06 11:48:33;;;;;;;;;;;29.10;85.80;;;;;;4976035;28;19909;-80
2022/09/06 11:51:00;;;;;;;;;;;29.10;86.40;;;;;;4989760;28;19966;-81
2022/09/06 11:53:29;;;;;;;;;;;29.20;86.30;;;;;;4993629;28;20041;-79
2022/09/06 11:55:58;;;;;;;;;;;29.10;85.50;;;;;;4979625;28;20007;-79
2022/09/06 11:58:33;;;;;;;;;;;29.10;86.00;;;;;;4993145;28;19913;-80
2022/09/06 12:01:11;;;;;;;;;;;29.10;86.30;;;;;;4980444;28;19914;-78
2022/09/06 12:03:57;;;;;;;;;;;29.10;86.90;;;;;;4980969;28;19912;-79
2022/09/06 12:06:32;;;;;;;;;;;29.10;86.00;;;;;;4978968;28;19905;-77
2022/09/06 12:08:58;;;;;;;;;;;29.20;85.20;;;;;;4997561;28;19925;-80
2022/09/06 12:11:34;;;;;;;;;;;29.20;85.20;;;;;;5002530;28;19914;-77
2022/09/06 12:14:19;;;;;;;;;;;29.40;84.70;;;;;;4994241;28;19913;-80
2022/09/06 12:16:56;;;;;;;;;;;29.40;85.20;;;;;;4993419;28;19972;-79
2022/09/06 12:19:38;;;;;;;;;;;29.50;84.10;;;;;;4991681;28;19981;-78
2022/09/06 12:22:23;;;;;;;;;;;29.50;84.20;;;;;;4980437;28;20395;-78
2022/09/06 12:24:50;;;;;;;;;;;29.50;84.00;;;;;;4977231;28;20057;-79
2022/09/06 12:27:25;;;;;;;;;;;29.30;82.10;;;;;;4991482;28;20232;-81
2022/09/06 12:29:57;;;;;;;;;;;29.40;82.20;;;;;;4995599;28;19956;-78
2022/09/06 12:32:27;;;;;;;;;;;29.50;81.10;;;;;;4977867;28;19914;-78
2022/09/06 12:34:54;;;;;;;;;;;29.50;82.30;;;;;;4972932;28;19959;-77
2022/09/06 12:37:30;;;;;;;;;;;29.60;82.20;;;;;;4993377;28;19918;-79
2022/09/06 12:39:57;;;;;;;;;;;29.80;78.70;;;;;;4988915;28;19953;-78
2022/09/06 12:42:22;;;;;;;;;;;29.70;78.30;;;;;;4977277;28;20367;-80
2022/09/06 12:44:50;;;;;;;;;;;29.70;79.00;;;;;;4987545;28;19914;-78
2022/09/06 12:47:36;;;;;;;;;;;29.60;79.20;;;;;;4974955;28;19914;-79
2022/09/06 12:50:05;;;;;;;;;;;29.60;78.50;;;;;;4974434;28;19917;-78
2022/09/06 12:52:30;;;;;;;;;;;29.70;76.30;;;;;;5010790;28;19909;-82
2022/09/06 12:54:56;;;;;;;;;;;29.80;76.10;;;;;;5026259;28;20104;-81
2022/09/06 12:57:22;;;;;;;;;;;30.20;75.80;;;;;;5026045;28;19925;-82
2022/09/06 12:59:52;;;;;;;;;;;30.20;73.60;;;;;;4999404;28;19961;-82
2022/09/06 13:02:39;;;;;;;;;;;30.20;74.30;;;;;;5014503;28;19972;-82
2022/09/06 13:05:10;;;;;;;;;;;30.10;74.60;;;;;;5000758;28;19902;-81
2022/09/06 13:07:39;;;;;;;;;;;30.20;76.10;;;;;;4998005;28;19898;-82
2022/09/06 13:10:05;;;;;;;;;;;30.30;73.30;;;;;;4995628;28;19902;-80
2022/09/06 13:12:36;;;;;;;;;;;30.30;72.30;;;;;;5010014;28;19916;-79
2022/09/06 13:15:07;;;;;;;;;;;30.10;73.10;;;;;;5016521;28;19917;-80
2022/09/06 13:17:34;;;;;;;;;;;29.90;73.20;;;;;;5015913;28;19977;-81
2022/09/06 13:20:08;;;;;;;;;;;29.70;75.10;;;;;;5024082;28;19933;-80
2022/09/06 13:22:44;;;;;;;;;;;29.70;75.60;;;;;;5011479;28;19908;-80
2022/09/06 13:25:23;;;;;;;;;;;29.70;75.40;;;;;;5015164;28;19902;-81
2022/09/06 13:27:49;;;;;;;;;;;29.80;76.10;;;;;;5008992;28;19909;-78
2022/09/06 13:30:34;;;;;;;;;;;29.80;76.10;;;;;;5013899;28;19922;-80
2022/09/06 13:33:00;;;;;;;;;;;29.70;76.50;;;;;;5016412;28;19912;-79
2022/09/06 13:35:28;;;;;;;;;;;29.70;76.20;;;;;;4995536;28;19937;-80
2022/09/06 13:38:12;;;;;;;;;;;29.80;77.00;;;;;;4989274;28;19910;-78
2022/09/06 13:40:41;;;;;;;;;;;29.90;76.80;;;;;;4978672;28;19910;-80
2022/09/06 13:43:10;;;;;;;;;;;29.90;76.70;;;;;;4993572;28;19914;-80
2022/09/06 13:45:36;;;;;;;;;;;30.00;76.60;;;;;;4980722;28;20683;-78
2022/09/06 13:48:01;;;;;;;;;;;29.80;76.90;;;;;;4982778;28;19913;-79
2022/09/06 13:50:27;;;;;;;;;;;29.70;77.20;;;;;;4988595;28;19905;-79
2022/09/06 13:52:53;;;;;;;;;;;29.70;77.50;;;;;;5003564;28;19906;-80
2022/09/06 13:55:29;;;;;;;;;;;29.60;78.40;;;;;;4983016;28;19928;-81
2022/09/06 13:57:54;;;;;;;;;;;29.60;78.90;;;;;;4979705;28;20004;-79
2022/09/06 14:00:20;;;;;;;;;;;29.70;79.00;;;;;;4984807;28;20421;-81
2022/09/06 14:02:47;;;;;;;;;;;29.80;78.90;;;;;;4993469;28;19909;-79
2022/09/06 14:05:12;;;;;;;;;;;29.90;78.90;;;;;;4992776;28;20005;-80
2022/09/06 14:07:38;;;;;;;;;;;29.80;78.70;;;;;;4989675;28;20023;-80
2022/09/06 14:10:04;;;;;;;;;;;29.60;78.70;;;;;;4969296;28;19917;-79
2022/09/06 14:12:29;;;;;;;;;;;29.40;79.70;;;;;;4974450;28;19914;-80
2022/09/06 14:14:55;;;;;;;;;;;29.20;80.00;;;;;;4996318;28;19905;-79
2022/09/06 14:17:20;;;;;;;;;;;29.20;80.20;;;;;;5000007;28;19920;-79
2022/09/06 14:19:46;;;;;;;;;;;29.20;79.50;;;;;;4981942;28;19920;-79
2022/09/06 14:22:12;;;;;;;;;;;29.40;79.70;;;;;;4995197;28;19957;-79
2022/09/06 14:24:38;;;;;;;;;;;29.40;79.70;;;;;;4987187;28;19964;-80
2022/09/06 14:27:05;;;;;;;;;;;29.70;78.90;;;;;;4992953;28;19921;-81
2022/09/06 14:29:31;;;;;;;;;;;30.00;76.60;;;;;;4971730;28;19913;-79
2022/09/06 14:31:57;;;;;;;;;;;30.00;75.80;;;;;;4983591;28;19919;-79
2022/09/06 14:34:24;;;;;;;;;;;30.20;75.80;;;;;;4987400;28;20064;-79
2022/09/06 14:36:50;;;;;;;;;;;30.10;75.70;;;;;;4972824;28;19918;-79
2022/09/06 14:39:17;;;;;;;;;;;30.30;76.20;;;;;;4974253;28;19912;-78
2022/09/06 14:41:42;;;;;;;;;;;30.30;76.40;;;;;;4977326;28;20129;-81